KBYI/BYI METAR and TAF weather

Enter ICAO airport designator
Station Type Date Time Source
KBYI METAR 2018/04/19 12:53 UTC NOAA

KBYI 191253Z AUTO 06009G15KT 020V080 10SM BKN110 04/M04 A2988 RMK AO2 SLP108 T00441044


Station Type Date Time Source
KBYI Decoded METAR 2018/04/19 12:53 UTC NOAA

BURLEY MUNICIPAL AIRPORT, ID, United States (KBYI) 42-33N 113-46W 1264M
Apr 19, 2018 - 08:53 AM EDT / 2018.04.19 1253 UTC
Wind: from the ENE (060 degrees) at 10 MPH (9 KT) gusting to 17 MPH (15 KT) (direction variable):0
Visibility: 10 mile(s):0
Sky conditions: mostly cloudy
Temperature: 39.9 F (4.4 C)
Dew Point: 24.1 F (-4.4 C)
Relative Humidity: 52%
Pressure (altimeter): 29.88 in. Hg (1011 hPa)
ob: KBYI 191253Z AUTO 06009G15KT 020V080 10SM BKN110 04/M04 A2988 RMK AO2 SLP108 T00441044
cycle: 13

Station Type Date Time Source
KBYI TAF 2018/04/19 12:24 UTC NOAA

TAF KBYI 191122Z 1912/2012 07012KT P6SM BKN100
FM200200 29011KT P6SM VCSH SCT050 BKN080


Example: see airport list